Time;durP1;ratioP1;P1;durP2;ratioP2;P2;SDS_P1;SDS_P2;PMS_P1;PMS_P2;Temp;Humidity;BMP_temperature;BMP_pressure;BME280_temperature;BME280_humidity;BME280_pressure;Samples;Min_cycle;Max_cycle;Signal;HPM_P1;HPM_P2
2023/10/25 00:00:41;;;;;;;4.00;3.40;;;;;;;;;;5071021;28;20229;-82
2023/10/25 00:03:10;;;;;;;3.57;3.27;;;;;;;;;;5070149;28;20193;-82
2023/10/25 00:05:37;;;;;;;3.77;3.47;;;;;;;;;;5070883;28;20252;-82
2023/10/25 00:08:04;;;;;;;3.47;3.23;;;;;;;;;;5068982;28;20206;-82
2023/10/25 00:10:33;;;;;;;3.43;3.13;;;;;;;;;;5058805;28;20243;-82
2023/10/25 00:13:00;;;;;;;3.97;3.50;;;;;;;;;;5070791;28;20205;-82
2023/10/25 00:15:28;;;;;;;4.43;4.00;;;;;;;;;;5070790;28;20225;-82
2023/10/25 00:17:55;;;;;;;3.70;3.40;;;;;;;;;;5071198;28;20201;-82
2023/10/25 00:20:21;;;;;;;3.87;3.57;;;;;;;;;;5060106;28;20719;-82
2023/10/25 00:22:48;;;;;;;4.27;3.87;;;;;;;;;;5051321;28;20198;-82
2023/10/25 00:25:15;;;;;;;4.00;3.70;;;;;;;;;;5052228;28;20210;-82
2023/10/25 00:27:43;;;;;;;5.97;3.77;;;;;;;;;;5070890;28;20224;-82
2023/10/25 00:30:11;;;;;;;4.00;3.60;;;;;;;;;;5066235;28;20218;-83
2023/10/25 00:32:38;;;;;;;5.10;3.97;;;;;;;;;;5050977;28;20206;-82
2023/10/25 00:35:05;;;;;;;4.87;3.73;;;;;;;;;;5051198;28;20202;-82
2023/10/25 00:37:32;;;;;;;3.73;3.43;;;;;;;;;;5053784;28;20210;-82
2023/10/25 00:39:59;;;;;;;3.77;3.47;;;;;;;;;;5050881;28;20236;-82
2023/10/25 00:42:26;;;;;;;4.10;3.80;;;;;;;;;;5050288;28;20711;-82
2023/10/25 00:44:56;;;;;;;4.10;3.70;;;;;;;;;;5051200;28;20656;-82
2023/10/25 00:47:23;;;;;;;6.60;3.70;;;;;;;;;;5063266;28;20619;-82
2023/10/25 00:49:50;;;;;;;5.37;4.00;;;;;;;;;;5069778;28;20226;-81
2023/10/25 00:52:17;;;;;;;4.57;3.37;;;;;;;;;;5070348;28;20612;-82
2023/10/25 00:54:44;;;;;;;3.90;3.50;;;;;;;;;;5070975;28;20684;-81
2023/10/25 00:57:11;;;;;;;4.40;3.90;;;;;;;;;;5070454;28;20229;-81
2023/10/25 00:59:39;;;;;;;4.37;3.97;;;;;;;;;;5050070;28;20786;-82
2023/10/25 01:02:09;;;;;;;7.67;4.20;;;;;;;;;;5041338;28;20237;-82
2023/10/25 01:04:36;;;;;;;5.17;3.87;;;;;;;;;;5036533;28;20215;-82
2023/10/25 01:07:03;;;;;;;4.33;3.77;;;;;;;;;;5046915;28;20237;-82
2023/10/25 01:09:31;;;;;;;5.20;4.60;;;;;;;;;;5050602;28;20221;-82
2023/10/25 01:11:58;;;;;;;5.10;3.77;;;;;;;;;;5060357;28;20234;-82
2023/10/25 01:14:27;;;;;;;3.70;3.40;;;;;;;;;;5060699;28;20205;-82
2023/10/25 01:16:54;;;;;;;3.60;3.30;;;;;;;;;;5073110;28;20298;-82
2023/10/25 01:19:23;;;;;;;4.03;3.73;;;;;;;;;;5074167;28;20220;-82
2023/10/25 01:21:50;;;;;;;4.33;3.93;;;;;;;;;;5057177;28;20233;-82
2023/10/25 01:24:18;;;;;;;3.80;3.50;;;;;;;;;;5061085;28;20600;-81
2023/10/25 01:26:45;;;;;;;4.47;4.10;;;;;;;;;;5074590;28;20237;-82
2023/10/25 01:29:12;;;;;;;4.47;3.77;;;;;;;;;;5064401;28;20225;-82
2023/10/25 01:31:40;;;;;;;4.10;3.70;;;;;;;;;;5054059;28;20233;-82
2023/10/25 01:34:07;;;;;;;3.77;3.47;;;;;;;;;;5054478;28;20322;-82
2023/10/25 01:36:34;;;;;;;10.30;4.10;;;;;;;;;;5054024;28;20237;-82
2023/10/25 01:39:01;;;;;;;4.83;4.37;;;;;;;;;;5060411;28;20606;-82
2023/10/25 01:41:29;;;;;;;5.27;4.77;;;;;;;;;;5073134;28;20233;-81
2023/10/25 01:43:56;;;;;;;6.80;4.63;;;;;;;;;;5061424;28;20217;-82
2023/10/25 01:46:23;;;;;;;5.17;4.47;;;;;;;;;;5054797;28;20244;-82
2023/10/25 01:48:50;;;;;;;5.33;4.53;;;;;;;;;;5054250;28;20217;-82
2023/10/25 01:51:17;;;;;;;4.97;4.47;;;;;;;;;;5053538;28;20750;-82
2023/10/25 01:53:44;;;;;;;4.93;4.20;;;;;;;;;;5073476;28;20205;-82
2023/10/25 01:56:11;;;;;;;4.93;4.17;;;;;;;;;;5073384;28;20233;-82
2023/10/25 01:58:40;;;;;;;5.30;4.80;;;;;;;;;;5073564;28;20206;-82
2023/10/25 02:01:07;;;;;;;4.77;4.37;;;;;;;;;;5038000;28;20587;-82
2023/10/25 02:03:34;;;;;;;5.27;4.67;;;;;;;;;;5057395;28;20210;-82
2023/10/25 02:06:11;;;;;;;6.33;4.40;;;;;;;;;;5055068;28;20703;-82
2023/10/25 02:08:38;;;;;;;6.57;5.30;;;;;;;;;;5069728;28;20202;-82
2023/10/25 02:11:05;;;;;;;5.30;4.80;;;;;;;;;;5062450;28;20225;-82
2023/10/25 02:13:32;;;;;;;5.50;4.70;;;;;;;;;;5064948;28;20757;-82
2023/10/25 02:16:00;;;;;;;5.53;4.93;;;;;;;;;;5061150;28;20730;-82
2023/10/25 02:18:27;;;;;;;5.50;4.93;;;;;;;;;;5063396;28;20213;-82
2023/10/25 02:20:54;;;;;;;4.13;3.77;;;;;;;;;;5054333;28;20245;-82
2023/10/25 02:23:21;;;;;;;4.60;4.20;;;;;;;;;;5063339;28;20201;-82
2023/10/25 02:25:48;;;;;;;6.60;4.50;;;;;;;;;;5070650;28;20225;-82
2023/10/25 02:28:15;;;;;;;7.40;4.53;;;;;;;;;;5060667;28;20656;-82
2023/10/25 02:30:42;;;;;;;5.60;4.77;;;;;;;;;;5073023;28;20248;-82
2023/10/25 02:33:11;;;;;;;9.00;4.60;;;;;;;;;;5061878;28;20207;-82
2023/10/25 02:35:38;;;;;;;6.90;4.40;;;;;;;;;;5072099;28;20229;-82
2023/10/25 02:38:05;;;;;;;5.87;4.77;;;;;;;;;;5068575;28;20214;-82
2023/10/25 02:40:32;;;;;;;5.03;4.57;;;;;;;;;;5072285;28;20695;-83
2023/10/25 02:42:59;;;;;;;5.43;4.87;;;;;;;;;;5068349;28;20688;-82
2023/10/25 02:45:26;;;;;;;5.40;4.90;;;;;;;;;;5052737;28;20237;-82
2023/10/25 02:47:53;;;;;;;5.93;5.33;;;;;;;;;;5071122;28;20205;-82
2023/10/25 02:50:21;;;;;;;6.53;5.20;;;;;;;;;;5072163;28;20707;-83
2023/10/25 02:52:48;;;;;;;9.60;5.03;;;;;;;;;;5060359;28;20217;-83
2023/10/25 02:55:16;;;;;;;7.10;5.70;;;;;;;;;;5053748;28;20306;-83
2023/10/25 02:57:43;;;;;;;9.37;5.87;;;;;;;;;;5069452;28;20263;-82
2023/10/25 03:00:11;;;;;;;6.67;5.90;;;;;;;;;;5056016;28;20222;-82
2023/10/25 03:02:38;;;;;;;11.43;5.93;;;;;;;;;;5069970;28;20209;-83
2023/10/25 03:05:05;;;;;;;6.53;5.53;;;;;;;;;;5072206;28;20205;-83
2023/10/25 03:07:33;;;;;;;8.67;5.83;;;;;;;;;;5072850;28;20198;-82
2023/10/25 03:10:00;;;;;;;13.10;6.07;;;;;;;;;;5072748;28;20217;-82
2023/10/25 03:12:29;;;;;;;8.20;5.53;;;;;;;;;;5072358;28;20707;-82
2023/10/25 03:14:56;;;;;;;7.07;5.90;;;;;;;;;;5072795;28;20616;-82
2023/10/25 03:17:23;;;;;;;7.33;5.93;;;;;;;;;;5072194;28;20783;-82
2023/10/25 03:19:50;;;;;;;6.53;5.87;;;;;;;;;;5058384;28;20229;-82
2023/10/25 03:22:17;;;;;;;10.10;5.53;;;;;;;;;;5051972;28;20237;-81
2023/10/25 03:24:46;;;;;;;7.53;5.60;;;;;;;;;;5052583;28;20206;-82
2023/10/25 03:27:13;;;;;;;6.33;5.70;;;;;;;;;;5052031;28;20299;-82
2023/10/25 03:29:40;;;;;;;9.33;5.63;;;;;;;;;;5052328;28;20237;-82
2023/10/25 03:32:07;;;;;;;6.70;5.73;;;;;;;;;;5051325;28;20229;-82
2023/10/25 03:34:34;;;;;;;7.10;5.27;;;;;;;;;;5052208;28;20202;-82
2023/10/25 03:37:02;;;;;;;5.30;4.80;;;;;;;;;;5051825;28;20242;-82
2023/10/25 03:39:29;;;;;;;7.47;4.90;;;;;;;;;;5052280;28;20264;-81
2023/10/25 03:41:57;;;;;;;7.30;4.93;;;;;;;;;;5051424;28;20588;-83
2023/10/25 03:44:24;;;;;;;6.80;5.30;;;;;;;;;;5052169;28;20691;-82
2023/10/25 03:46:53;;;;;;;5.10;4.60;;;;;;;;;;5051691;28;20234;-83
2023/10/25 03:49:20;;;;;;;5.73;5.10;;;;;;;;;;5051902;28;20321;-83
2023/10/25 03:51:47;;;;;;;7.27;4.70;;;;;;;;;;5051531;28;20238;-83
2023/10/25 03:54:14;;;;;;;7.30;4.47;;;;;;;;;;5052048;28;20228;-82
2023/10/25 03:56:42;;;;;;;4.40;4.00;;;;;;;;;;5051421;28;20391;-82
2023/10/25 03:59:11;;;;;;;14.67;4.27;;;;;;;;;;5052020;28;20230;-83
2023/10/25 04:01:39;;;;;;;4.10;3.73;;;;;;;;;;5051044;28;20241;-82
2023/10/25 04:04:09;;;;;;;4.30;3.87;;;;;;;;;;5051667;28;20206;-82
2023/10/25 04:06:36;;;;;;;4.33;3.73;;;;;;;;;;5051201;28;20257;-82
2023/10/25 04:09:03;;;;;;;5.13;4.00;;;;;;;;;;5051638;28;20234;-81
2023/10/25 04:11:30;;;;;;;4.83;4.07;;;;;;;;;;5054216;28;20232;-81
2023/10/25 04:13:57;;;;;;;6.33;4.10;;;;;;;;;;5064769;28;20209;-80
2023/10/25 04:16:27;;;;;;;7.60;4.43;;;;;;;;;;5059595;28;20225;-81
2023/10/25 04:18:54;;;;;;;4.40;4.00;;;;;;;;;;5070641;28;20233;-81
2023/10/25 04:21:21;;;;;;;4.13;3.73;;;;;;;;;;5070968;28;20240;-82
2023/10/25 04:23:48;;;;;;;7.07;3.70;;;;;;;;;;5071061;28;20228;-81
2023/10/25 04:26:15;;;;;;;4.27;3.83;;;;;;;;;;5070259;28;20763;-80
2023/10/25 04:28:43;;;;;;;5.03;4.40;;;;;;;;;;5054409;28;21026;-80
2023/10/25 04:31:10;;;;;;;5.23;4.10;;;;;;;;;;5049726;28;20234;-81
2023/10/25 04:33:40;;;;;;;4.40;4.00;;;;;;;;;;5051166;28;20256;-81
2023/10/25 04:36:07;;;;;;;4.10;3.47;;;;;;;;;;5050865;28;20237;-81
2023/10/25 04:38:34;;;;;;;3.83;3.53;;;;;;;;;;5051194;28;20209;-81
2023/10/25 04:41:02;;;;;;;5.50;3.20;;;;;;;;;;5050899;28;20627;-81
2023/10/25 04:43:29;;;;;;;3.50;3.20;;;;;;;;;;5050455;28;20616;-81
2023/10/25 04:45:56;;;;;;;3.17;2.97;;;;;;;;;;5051211;28;20311;-81
2023/10/25 04:48:24;;;;;;;3.70;3.40;;;;;;;;;;5051205;28;20586;-81
2023/10/25 04:50:52;;;;;;;3.03;2.73;;;;;;;;;;5050317;28;20238;-81
2023/10/25 04:53:19;;;;;;;5.77;2.60;;;;;;;;;;5050816;28;20867;-80
2023/10/25 04:55:46;;;;;;;3.43;2.67;;;;;;;;;;5050546;28;20225;-81
2023/10/25 04:58:13;;;;;;;2.57;2.37;;;;;;;;;;5051023;28;20206;-81
2023/10/25 05:00:40;;;;;;;4.07;2.50;;;;;;;;;;5050362;28;20241;-80
2023/10/25 05:03:10;;;;;;;2.73;2.53;;;;;;;;;;5063735;28;20229;-81
2023/10/25 05:05:38;;;;;;;2.27;2.17;;;;;;;;;;5070468;28;20236;-81
2023/10/25 05:08:07;;;;;;;6.17;2.43;;;;;;;;;;5066589;28;20229;-80
2023/10/25 05:10:34;;;;;;;5.83;3.07;;;;;;;;;;5070432;28;20233;-80
2023/10/25 05:13:01;;;;;;;2.70;2.50;;;;;;;;;;5070791;28;20205;-81
2023/10/25 05:15:29;;;;;;;2.53;2.33;;;;;;;;;;5070399;28;20225;-81
2023/10/25 05:17:56;;;;;;;3.87;2.50;;;;;;;;;;5070988;28;20206;-81
2023/10/25 05:20:23;;;;;;;3.60;2.73;;;;;;;;;;5070042;28;20582;-81
2023/10/25 05:22:51;;;;;;;2.80;2.60;;;;;;;;;;5070326;28;20213;-81
2023/10/25 05:25:21;;;;;;;3.00;2.80;;;;;;;;;;5070354;28;20205;-81
2023/10/25 05:27:49;;;;;;;3.20;2.90;;;;;;;;;;5066316;28;20276;-82
2023/10/25 05:30:17;;;;;;;2.40;2.30;;;;;;;;;;5050194;28;20233;-81
2023/10/25 05:32:46;;;;;;;2.77;2.57;;;;;;;;;;5050104;28;20324;-81
2023/10/25 05:35:14;;;;;;;2.70;2.50;;;;;;;;;;5050598;28;20252;-81
2023/10/25 05:37:41;;;;;;;2.97;2.77;;;;;;;;;;5050410;28;20213;-81
2023/10/25 05:40:09;;;;;;;2.80;2.60;;;;;;;;;;5050221;28;20751;-81
2023/10/25 05:42:39;;;;;;;2.60;2.40;;;;;;;;;;5050248;28;20236;-81
2023/10/25 05:45:07;;;;;;;5.77;2.57;;;;;;;;;;5050489;28;20206;-82
2023/10/25 05:47:34;;;;;;;5.50;2.17;;;;;;;;;;5050430;28;20213;-82
2023/10/25 05:50:01;;;;;;;2.60;2.40;;;;;;;;;;5050551;28;20708;-81
2023/10/25 05:52:29;;;;;;;4.67;2.50;;;;;;;;;;5050089;28;20232;-81
2023/10/25 05:54:56;;;;;;;5.33;2.47;;;;;;;;;;5051991;28;20206;-81
2023/10/25 05:57:23;;;;;;;3.97;2.60;;;;;;;;;;5054146;28;20233;-81
2023/10/25 05:59:52;;;;;;;5.50;2.40;;;;;;;;;;5054692;28;20229;-82
2023/10/25 06:02:22;;;;;;;2.37;2.17;;;;;;;;;;5053425;28;20711;-82
2023/10/25 06:04:50;;;;;;;2.40;2.20;;;;;;;;;;5051007;28;20206;-82
2023/10/25 06:07:17;;;;;;;2.40;2.20;;;;;;;;;;5045639;28;20249;-81
2023/10/25 06:09:45;;;;;;;2.67;2.47;;;;;;;;;;5050722;28;20233;-82
2023/10/25 06:12:12;;;;;;;2.40;2.30;;;;;;;;;;5052326;28;20553;-82
2023/10/25 06:14:39;;;;;;;5.50;2.30;;;;;;;;;;5052668;28;20691;-82
2023/10/25 06:17:08;;;;;;;2.40;2.30;;;;;;;;;;5047948;28;20225;-82
2023/10/25 06:19:35;;;;;;;2.70;2.50;;;;;;;;;;5052181;28;20225;-81
2023/10/25 06:22:02;;;;;;;2.50;2.30;;;;;;;;;;5051828;28;20233;-82
2023/10/25 06:24:29;;;;;;;2.47;2.30;;;;;;;;;;5052829;28;20213;-81
2023/10/25 06:26:56;;;;;;;2.70;2.50;;;;;;;;;;5052019;28;20237;-82
2023/10/25 06:29:23;;;;;;;3.43;2.63;;;;;;;;;;5052420;28;20593;-82
2023/10/25 06:31:51;;;;;;;2.40;2.20;;;;;;;;;;5051673;28;20221;-82
2023/10/25 06:34:20;;;;;;;2.67;2.47;;;;;;;;;;5052669;28;20245;-81
2023/10/25 06:36:48;;;;;;;7.50;2.60;;;;;;;;;;5051889;28;20587;-81
2023/10/25 06:39:15;;;;;;;2.93;2.63;;;;;;;;;;5052146;28;20245;-82
2023/10/25 06:41:43;;;;;;;3.67;3.30;;;;;;;;;;5051716;28;20236;-82
2023/10/25 06:44:10;;;;;;;3.20;2.90;;;;;;;;;;5052436;28;20767;-82
2023/10/25 06:46:38;;;;;;;2.67;2.47;;;;;;;;;;5051636;28;20237;-82
2023/10/25 06:49:05;;;;;;;7.17;3.33;;;;;;;;;;5051960;28;20225;-82
2023/10/25 06:51:34;;;;;;;7.67;3.40;;;;;;;;;;5051990;28;20329;-82
2023/10/25 06:54:01;;;;;;;11.07;3.50;;;;;;;;;;5064357;28;20586;-82
2023/10/25 06:56:29;;;;;;;6.60;3.30;;;;;;;;;;5072642;28;20233;-82
2023/10/25 06:58:57;;;;;;;5.10;3.37;;;;;;;;;;5072612;28;20366;-82
2023/10/25 07:01:26;;;;;;;3.80;3.50;;;;;;;;;;5072104;28;20244;-82
2023/10/25 07:03:56;;;;;;;4.23;3.83;;;;;;;;;;5053366;28;20224;-82
2023/10/25 07:06:24;;;;;;;4.87;3.20;;;;;;;;;;5051836;28;20238;-82
2023/10/25 07:08:53;;;;;;;3.90;3.50;;;;;;;;;;5052566;28;20230;-82
2023/10/25 07:11:20;;;;;;;3.87;3.57;;;;;;;;;;5052052;28;20258;-82
2023/10/25 07:13:47;;;;;;;5.73;3.63;;;;;;;;;;5052291;28;20202;-82
2023/10/25 07:16:14;;;;;;;4.73;3.37;;;;;;;;;;5051831;28;20225;-82
2023/10/25 07:18:41;;;;;;;4.53;4.10;;;;;;;;;;5052534;28;20213;-82
2023/10/25 07:21:08;;;;;;;6.17;4.43;;;;;;;;;;5052027;28;20823;-82
2023/10/25 07:23:35;;;;;;;9.63;5.17;;;;;;;;;;5052121;28;20689;-82
2023/10/25 07:26:04;;;;;;;10.27;5.47;;;;;;;;;;5051991;28;20233;-82
2023/10/25 07:28:31;;;;;;;8.47;5.57;;;;;;;;;;5052231;28;20272;-82
2023/10/25 07:30:58;;;;;;;7.77;6.40;;;;;;;;;;5051772;28;20234;-82
2023/10/25 07:33:25;;;;;;;6.37;5.77;;;;;;;;;;5052133;28;20210;-81
2023/10/25 07:35:52;;;;;;;8.27;5.53;;;;;;;;;;5052002;28;20237;-81
2023/10/25 07:38:19;;;;;;;7.37;5.50;;;;;;;;;;5051925;28;20218;-82
2023/10/25 07:40:48;;;;;;;11.50;5.57;;;;;;;;;;5051422;28;20719;-81
2023/10/25 07:43:17;;;;;;;7.77;5.57;;;;;;;;;;5052021;28;20233;-81
2023/10/25 07:45:44;;;;;;;6.07;5.47;;;;;;;;;;5051743;28;20237;-81
2023/10/25 07:48:11;;;;;;;9.93;5.87;;;;;;;;;;5052112;28;20206;-81
2023/10/25 07:50:38;;;;;;;10.27;5.20;;;;;;;;;;5051315;28;20237;-82
2023/10/25 07:53:05;;;;;;;7.80;5.33;;;;;;;;;;5051757;28;20293;-81
2023/10/25 07:55:33;;;;;;;7.90;5.67;;;;;;;;;;5051436;28;20236;-82
2023/10/25 07:58:00;;;;;;;12.27;5.43;;;;;;;;;;5051662;28;20241;-82
2023/10/25 08:00:28;;;;;;;8.53;5.37;;;;;;;;;;5051225;28;20230;-82
2023/10/25 08:02:55;;;;;;;7.93;5.50;;;;;;;;;;5062667;28;20232;-82
2023/10/25 08:05:22;;;;;;;11.73;5.37;;;;;;;;;;5071263;28;20213;-81
2023/10/25 08:07:49;;;;;;;8.30;4.90;;;;;;;;;;5071388;28;20217;-82
2023/10/25 08:10:16;;;;;;;9.63;5.47;;;;;;;;;;5071096;28;20232;-82
2023/10/25 08:12:43;;;;;;;15.00;5.17;;;;;;;;;;5071296;28;20292;-81
2023/10/25 08:15:11;;;;;;;10.20;5.93;;;;;;;;;;5070923;28;20212;-82
2023/10/25 08:17:39;;;;;;;8.73;5.43;;;;;;;;;;5071192;28;20585;-82
2023/10/25 08:20:07;;;;;;;10.93;6.10;;;;;;;;;;5070665;28;20729;-82
2023/10/25 08:22:35;;;;;;;15.37;6.53;;;;;;;;;;5071170;28;20711;-82
2023/10/25 08:25:03;;;;;;;16.87;6.57;;;;;;;;;;5070549;28;20262;-82
2023/10/25 08:27:30;;;;;;;17.47;6.90;;;;;;;;;;5071405;28;20227;-81
2023/10/25 08:29:57;;;;;;;15.50;6.90;;;;;;;;;;5070951;28;20225;-82
2023/10/25 08:32:24;;;;;;;15.23;7.27;;;;;;;;;;5070648;28;20225;-82
2023/10/25 08:34:52;;;;;;;16.73;7.10;;;;;;;;;;5071316;28;20212;-82
2023/10/25 08:37:19;;;;;;;19.00;7.67;;;;;;;;;;5071017;28;20240;-82
2023/10/25 08:39:46;;;;;;;13.47;7.50;;;;;;;;;;5070868;28;20726;-82
2023/10/25 08:42:13;;;;;;;14.93;7.53;;;;;;;;;;5070804;28;20236;-82
2023/10/25 08:44:41;;;;;;;16.43;8.27;;;;;;;;;;5071408;28;20205;-81
2023/10/25 08:47:11;;;;;;;22.20;7.60;;;;;;;;;;5070585;28;20237;-81
2023/10/25 08:49:38;;;;;;;17.33;8.40;;;;;;;;;;5071183;28;20325;-81
2023/10/25 08:52:07;;;;;;;14.80;7.23;;;;;;;;;;5070275;28;20229;-81
2023/10/25 08:54:36;;;;;;;19.93;9.27;;;;;;;;;;5071261;28;20202;-81
2023/10/25 08:57:03;;;;;;;21.60;8.23;;;;;;;;;;5070281;28;20331;-82
2023/10/25 08:59:31;;;;;;;20.87;8.53;;;;;;;;;;5070574;28;20221;-81
2023/10/25 09:01:58;;;;;;;22.33;9.40;;;;;;;;;;5066368;28;20225;-81
2023/10/25 09:04:25;;;;;;;22.70;7.80;;;;;;;;;;5050811;28;20206;-82
2023/10/25 09:06:52;;;;;;;19.37;7.93;;;;;;;;;;5050603;28;20241;-82
2023/10/25 09:09:20;;;;;;;6.33;4.57;;;;;;;;;;5050628;28;20226;-81
2023/10/25 09:11:48;;;;;;;9.93;5.10;;;;;;;;;;5050218;28;20233;-82
2023/10/25 09:14:15;;;;;;;13.80;6.20;;;;;;;;;;5050739;28;20213;-82
2023/10/25 09:16:43;;;;;;;11.00;5.10;;;;;;;;;;5050535;28;20317;-82
2023/10/25 09:19:10;;;;;;;10.30;5.10;;;;;;;;;;5050288;28;20704;-82
2023/10/25 09:21:37;;;;;;;9.33;5.30;;;;;;;;;;5049940;28;20237;-82
2023/10/25 09:24:07;;;;;;;10.07;4.33;;;;;;;;;;5050559;28;20210;-81
2023/10/25 09:26:36;;;;;;;8.23;4.97;;;;;;;;;;5050109;28;20233;-82
2023/10/25 09:29:04;;;;;;;8.20;4.50;;;;;;;;;;5050650;28;20236;-82
2023/10/25 09:31:31;;;;;;;5.47;4.70;;;;;;;;;;5053708;28;20230;-82
2023/10/25 09:33:59;;;;;;;6.60;4.13;;;;;;;;;;5054593;28;20681;-82
2023/10/25 09:36:26;;;;;;;3.73;3.37;;;;;;;;;;5053708;28;20268;-82
2023/10/25 09:38:54;;;;;;;6.13;3.67;;;;;;;;;;5054163;28;20233;-82
2023/10/25 09:41:21;;;;;;;3.43;2.80;;;;;;;;;;5053613;28;20234;-82
2023/10/25 09:43:51;;;;;;;3.00;2.60;;;;;;;;;;5053640;28;20312;-83
2023/10/25 09:46:18;;;;;;;3.90;3.03;;;;;;;;;;5053656;28;20245;-83
2023/10/25 09:48:55;;;;;;;2.77;2.57;;;;;;;;;;5054080;28;20210;-82
2023/10/25 09:51:25;;;;;;;2.40;2.30;;;;;;;;;;5053884;28;20230;-83
2023/10/25 09:53:58;;;;;;;1.93;1.80;;;;;;;;;;5053937;28;20209;-81
2023/10/25 09:56:25;;;;;;;2.73;2.50;;;;;;;;;;5053676;28;20237;-81
2023/10/25 09:58:55;;;;;;;2.37;2.20;;;;;;;;;;5053599;28;20230;-81
2023/10/25 10:01:22;;;;;;;2.53;2.33;;;;;;;;;;5052996;28;20233;-81
2023/10/25 10:03:51;;;;;;;3.00;2.17;;;;;;;;;;5071166;28;20710;-81
2023/10/25 10:06:25;;;;;;;2.47;2.37;;;;;;;;;;5072249;28;20306;-81
2023/10/25 10:08:54;;;;;;;2.83;2.20;;;;;;;;;;5071976;28;20238;-82
2023/10/25 10:11:25;;;;;;;2.33;2.20;;;;;;;;;;5073085;28;20240;-82
2023/10/25 10:14:07;;;;;;;2.50;2.30;;;;;;;;;;5073422;28;20574;-82
2023/10/25 10:16:35;;;;;;;2.70;2.50;;;;;;;;;;5073262;28;20225;-82
2023/10/25 10:19:02;;;;;;;2.40;2.30;;;;;;;;;;5073400;28;20221;-82
2023/10/25 10:21:29;;;;;;;2.20;2.10;;;;;;;;;;5073327;28;20928;-82
2023/10/25 10:23:56;;;;;;;2.40;2.20;;;;;;;;;;5073412;28;20232;-82
2023/10/25 10:26:42;;;;;;;2.13;2.00;;;;;;;;;;5072604;28;20248;-81
2023/10/25 10:29:37;;;;;;;2.70;2.50;;;;;;;;;;5072762;28;20233;-82
2023/10/25 10:32:07;;;;;;;2.30;2.10;;;;;;;;;;5072738;28;20648;-81
2023/10/25 10:34:38;;;;;;;3.00;2.20;;;;;;;;;;5073392;28;20205;-82
2023/10/25 10:37:08;;;;;;;2.00;1.90;;;;;;;;;;5072640;28;20282;-82
2023/10/25 10:39:35;;;;;;;2.70;2.50;;;;;;;;;;5073082;28;20368;-82
2023/10/25 10:42:03;;;;;;;2.23;2.13;;;;;;;;;;5071200;28;20641;-81
2023/10/25 10:44:30;;;;;;;2.73;1.87;;;;;;;;;;5073389;28;20213;-81
2023/10/25 10:46:59;;;;;;;2.50;2.20;;;;;;;;;;5072468;28;20595;-81
2023/10/25 10:49:29;;;;;;;2.67;2.10;;;;;;;;;;5073263;28;20247;-84
2023/10/25 10:51:57;;;;;;;2.00;1.90;;;;;;;;;;5072454;28;20715;-83
2023/10/25 10:54:24;;;;;;;1.80;1.70;;;;;;;;;;5073251;28;20198;-84
2023/10/25 10:56:51;;;;;;;2.40;2.23;;;;;;;;;;5072601;28;20233;-84
2023/10/25 10:59:18;;;;;;;2.17;1.90;;;;;;;;;;5073248;28;20256;-83
2023/10/25 11:01:45;;;;;;;4.00;1.90;;;;;;;;;;5070724;28;20630;-84
2023/10/25 11:04:12;;;;;;;2.03;1.93;;;;;;;;;;5052858;28;20238;-83
2023/10/25 11:06:41;;;;;;;2.10;1.90;;;;;;;;;;5052639;28;20257;-83
2023/10/25 11:09:09;;;;;;;1.90;1.80;;;;;;;;;;5052558;28;20233;-83
2023/10/25 11:11:36;;;;;;;1.67;1.57;;;;;;;;;;5052527;28;20234;-83
2023/10/25 11:14:03;;;;;;;1.77;1.67;;;;;;;;;;5052680;28;20256;-83
2023/10/25 11:16:31;;;;;;;1.80;1.70;;;;;;;;;;5052358;28;20237;-83
2023/10/25 11:19:06;;;;;;;2.10;1.90;;;;;;;;;;5052356;28;20221;-84
2023/10/25 11:21:33;;;;;;;2.10;1.97;;;;;;;;;;5052050;28;20298;-83
2023/10/25 11:24:06;;;;;;;1.87;1.77;;;;;;;;;;5052508;28;20240;-84
2023/10/25 11:26:37;;;;;;;2.90;2.00;;;;;;;;;;5052126;28;20296;-84
2023/10/25 11:29:04;;;;;;;1.70;1.60;;;;;;;;;;5052766;28;20636;-84
2023/10/25 11:31:32;;;;;;;1.80;1.70;;;;;;;;;;5051889;28;20241;-85
2023/10/25 11:34:00;;;;;;;2.00;1.90;;;;;;;;;;5052706;28;20206;-84
2023/10/25 11:36:27;;;;;;;1.80;1.70;;;;;;;;;;5051907;28;20233;-84
2023/10/25 11:38:54;;;;;;;1.57;1.47;;;;;;;;;;5051823;28;20240;-83
2023/10/25 11:41:23;;;;;;;2.00;1.90;;;;;;;;;;5051573;28;20229;-83
2023/10/25 11:43:50;;;;;;;1.80;1.73;;;;;;;;;;5034208;28;20254;-84
2023/10/25 11:46:17;;;;;;;2.00;1.90;;;;;;;;;;5031498;28;20238;-83
2023/10/25 11:48:44;;;;;;;2.17;2.07;;;;;;;;;;5032010;28;20578;-84
2023/10/25 11:51:11;;;;;;;1.80;1.70;;;;;;;;;;5041247;28;20236;-83
2023/10/25 11:53:38;;;;;;;2.00;1.90;;;;;;;;;;5071005;28;20655;-83
2023/10/25 11:56:06;;;;;;;2.33;2.10;;;;;;;;;;5071292;28;20225;-84
2023/10/25 11:58:34;;;;;;;2.40;2.20;;;;;;;;;;5071749;28;20213;-83
2023/10/25 12:01:04;;;;;;;7.50;3.73;;;;;;;;;;5071201;28;20240;-83
2023/10/25 12:03:31;;;;;;;2.83;2.63;;;;;;;;;;5071629;28;20270;-83
2023/10/25 12:05:58;;;;;;;2.60;2.37;;;;;;;;;;5071157;28;20230;-83
2023/10/25 12:08:26;;;;;;;2.50;2.40;;;;;;;;;;5071887;28;20209;-83
2023/10/25 12:10:53;;;;;;;2.53;2.03;;;;;;;;;;5053206;28;20229;-84
2023/10/25 12:13:20;;;;;;;2.60;2.40;;;;;;;;;;5051564;28;20233;-84
2023/10/25 12:15:49;;;;;;;2.93;2.50;;;;;;;;;;5051126;28;20233;-85
2023/10/25 12:18:17;;;;;;;2.40;2.30;;;;;;;;;;5051246;28;20206;-84
2023/10/25 12:20:44;;;;;;;3.17;2.00;;;;;;;;;;5051057;28;20262;-84
2023/10/25 12:23:11;;;;;;;1.80;1.70;;;;;;;;;;5050860;28;20229;-85
2023/10/25 12:25:38;;;;;;;2.00;1.90;;;;;;;;;;5051046;28;20229;-84
2023/10/25 12:28:05;;;;;;;2.43;1.70;;;;;;;;;;5051653;28;20191;-85
2023/10/25 12:30:32;;;;;;;2.50;1.80;;;;;;;;;;5051247;28;20317;-84
2023/10/25 12:33:01;;;;;;;1.90;1.80;;;;;;;;;;5051253;28;20224;-86
2023/10/25 12:35:28;;;;;;;1.90;1.80;;;;;;;;;;5051307;28;20229;-85
2023/10/25 12:37:55;;;;;;;1.60;1.60;;;;;;;;;;5051322;28;20865;-85
2023/10/25 12:40:22;;;;;;;3.40;1.53;;;;;;;;;;5050689;28;20305;-85
2023/10/25 12:42:49;;;;;;;1.57;1.50;;;;;;;;;;5051482;28;20218;-84
2023/10/25 12:45:16;;;;;;;1.30;1.20;;;;;;;;;;5050567;28;20214;-84
2023/10/25 12:47:43;;;;;;;1.60;1.50;;;;;;;;;;5071119;28;20201;-84
2023/10/25 12:50:11;;;;;;;1.60;1.50;;;;;;;;;;5070761;28;20225;-85
2023/10/25 12:52:39;;;;;;;2.63;1.70;;;;;;;;;;5071092;28;20220;-84
2023/10/25 12:55:06;;;;;;;1.50;1.47;;;;;;;;;;5071050;28;20201;-85
2023/10/25 12:57:33;;;;;;;1.70;1.60;;;;;;;;;;5071310;28;20205;-84
2023/10/25 13:00:00;;;;;;;1.30;1.30;;;;;;;;;;5071061;28;20230;-83
2023/10/25 13:02:27;;;;;;;1.50;1.40;;;;;;;;;;5070379;28;20233;-84
2023/10/25 13:04:54;;;;;;;1.47;1.40;;;;;;;;;;5072685;28;20225;-83
2023/10/25 13:07:22;;;;;;;1.73;1.70;;;;;;;;;;5074616;28;20255;-84
2023/10/25 13:09:49;;;;;;;1.80;1.70;;;;;;;;;;5075062;28;20225;-83
2023/10/25 13:12:17;;;;;;;1.77;1.67;;;;;;;;;;5074388;28;20264;-83
2023/10/25 13:14:44;;;;;;;1.60;1.50;;;;;;;;;;5075119;28;20201;-83
2023/10/25 13:17:11;;;;;;;1.47;1.43;;;;;;;;;;5069768;28;20232;-84
2023/10/25 13:19:38;;;;;;;2.07;1.97;;;;;;;;;;5074849;28;20260;-83
2023/10/25 13:22:05;;;;;;;1.90;1.70;;;;;;;;;;5074141;28;20229;-83
2023/10/25 13:24:33;;;;;;;6.13;3.37;;;;;;;;;;5074538;28;20835;-82
2023/10/25 13:27:00;;;;;;;2.43;2.27;;;;;;;;;;5074166;28;20282;-82
2023/10/25 13:29:28;;;;;;;3.57;3.27;;;;;;;;;;5074393;28;20221;-83
2023/10/25 13:31:55;;;;;;;3.70;1.80;;;;;;;;;;5074001;28;20723;-83
2023/10/25 13:34:23;;;;;;;1.87;1.77;;;;;;;;;;5074309;28;20212;-83
2023/10/25 13:36:50;;;;;;;2.80;2.60;;;;;;;;;;5074245;28;20320;-82
2023/10/25 13:39:17;;;;;;;2.77;2.57;;;;;;;;;;5074120;28;20241;-82
2023/10/25 13:41:45;;;;;;;4.10;3.80;;;;;;;;;;5073788;28;20244;-82
2023/10/25 13:44:12;;;;;;;4.20;3.80;;;;;;;;;;5073880;28;20229;-82
2023/10/25 13:46:40;;;;;;;2.20;2.10;;;;;;;;;;5062082;28;20229;-83
2023/10/25 13:49:07;;;;;;;2.07;1.97;;;;;;;;;;5054170;28;20233;-83
2023/10/25 13:51:35;;;;;;;1.70;1.60;;;;;;;;;;5053337;28;20230;-82
2023/10/25 13:54:02;;;;;;;4.77;1.87;;;;;;;;;;5054204;28;20372;-83
2023/10/25 13:56:29;;;;;;;1.77;1.67;;;;;;;;;;5053699;28;20798;-82
2023/10/25 13:58:58;;;;;;;1.80;1.67;;;;;;;;;;5054065;28;20226;-83
2023/10/25 14:01:25;;;;;;;1.87;1.77;;;;;;;;;;5053422;28;20238;-83
2023/10/25 14:03:52;;;;;;;1.70;1.60;;;;;;;;;;5053917;28;20236;-82
2023/10/25 14:06:19;;;;;;;1.73;1.63;;;;;;;;;;5053246;28;20238;-83
2023/10/25 14:08:46;;;;;;;1.70;1.60;;;;;;;;;;5053779;28;20560;-82
2023/10/25 14:11:14;;;;;;;1.87;1.77;;;;;;;;;;5053384;28;20233;-83
2023/10/25 14:13:41;;;;;;;1.80;1.70;;;;;;;;;;5053643;28;20206;-82
2023/10/25 14:16:10;;;;;;;1.70;1.60;;;;;;;;;;5048587;28;20610;-82
2023/10/25 14:18:37;;;;;;;2.37;2.10;;;;;;;;;;5053543;28;20735;-82
2023/10/25 14:21:08;;;;;;;1.80;1.70;;;;;;;;;;5053465;28;20229;-82
2023/10/25 14:23:35;;;;;;;1.80;1.70;;;;;;;;;;5053584;28;20711;-82
2023/10/25 14:26:03;;;;;;;2.10;1.90;;;;;;;;;;5053586;28;20726;-83
2023/10/25 14:28:30;;;;;;;1.93;1.83;;;;;;;;;;5053845;28;20287;-84
2023/10/25 14:30:57;;;;;;;2.90;2.00;;;;;;;;;;5053282;28;20236;-83
2023/10/25 14:33:26;;;;;;;2.40;2.20;;;;;;;;;;5053868;28;20206;-82
2023/10/25 14:35:53;;;;;;;1.73;1.63;;;;;;;;;;5053173;28;20316;-83
2023/10/25 14:38:21;;;;;;;12.40;8.47;;;;;;;;;;5053382;28;20640;-82
2023/10/25 14:40:48;;;;;;;43.17;22.63;;;;;;;;;;5053179;28;20233;-82
2023/10/25 14:43:15;;;;;;;12.63;8.63;;;;;;;;;;5053238;28;20210;-82